Ana Sayfa
METAR-TAF:

METAR-TAF

Havaalanları :

Francistown, Botsvana

Enlem: 21-13S, Boylam: 027-30E, yükseklik: 1001 m

Güncel hava durumu gözlemi

Rapor saat 14:00 UTC de 1 saat ve 11 dakika önce yapıldı.
Rüzgar doğudan 9 kt, doğu/kuzeydoğu ve güneydoğu arasında değişken
Sıcaklık 22°C
Nem 35%
Basınç 1025 hPa
Görüş mesafesi 10 km veya daha fazla
1500 m altında bulut yok ve kümülonimbus yok

METAR: FBFT 081400Z 10009KT 070V140 CAVOK 22/06 Q1025

Saat: 17:11 (15:11 UTC)

Tahmin

Rapor saat 12:00 UTC de 3 saat ve 11 dakika önce yapıldı.
Ayın 08'si saat 15 UTC'den ayın 08'si saat 24 UTC'ye kadar geçerli Tahmin
Rüzgar doğudan 8 kt
Görüş mesafesi 10 km veya daha fazla
1500 m altında bulut yok ve kümülonimbus yok

TAF: FBFT 081200Z 0815/0824 09008KT CAVOK

4.000'den fazla havaalanı için hava durumu gözlemleri ve tahminleri (METAR ve TAF raporları).

Kullanılabilir istasyonlar harita üzerinde sarı ve kırmızı noktalarla gösterilir.

İstasyonun adını görmek için fareyi noktanın üzerinde gezdirin.

Sonrasında hava gözlem ve tahminlerini görmek için tıklayın.

Haritayı değiştirmek için: yaklaştırmak için siyah artı işaretli yeşil düğmeye ve uzaklaştırmak için de eksi işaretli düğmeye hızla tıklayın; bitişik haritalar için yeşil okları kullanın.


METAR-TAF: